sensor_id;sensor_type;location;lat;lon;timestamp;temperature;humidity
42743;DHT22;28397;44.552;-0.848;2022-11-20T00:02:02;2.70;99.90
42743;DHT22;28397;44.552;-0.848;2022-11-20T00:04:28;2.80;99.90
42743;DHT22;28397;44.552;-0.848;2022-11-20T00:06:53;3.00;99.90
42743;DHT22;28397;44.552;-0.848;2022-11-20T00:09:19;3.00;99.90
42743;DHT22;28397;44.552;-0.848;2022-11-20T00:11:45;3.00;99.90
42743;DHT22;28397;44.552;-0.848;2022-11-20T00:14:11;3.10;99.90
42743;DHT22;28397;44.552;-0.848;2022-11-20T00:16:37;3.10;99.90
42743;DHT22;28397;44.552;-0.848;2022-11-20T00:19:02;3.00;99.90
42743;DHT22;28397;44.552;-0.848;2022-11-20T00:21:29;3.10;99.90
42743;DHT22;28397;44.552;-0.848;2022-11-20T00:23:56;3.40;99.90
42743;DHT22;28397;44.552;-0.848;2022-11-20T00:26:24;3.20;99.90
42743;DHT22;28397;44.552;-0.848;2022-11-20T00:28:55;3.30;99.90
42743;DHT22;28397;44.552;-0.848;2022-11-20T00:31:21;3.20;99.90
42743;DHT22;28397;44.552;-0.848;2022-11-20T00:33:47;3.20;99.90
42743;DHT22;28397;44.552;-0.848;2022-11-20T00:36:15;3.20;99.90
42743;DHT22;28397;44.552;-0.848;2022-11-20T00:38:42;3.20;99.90
42743;DHT22;28397;44.552;-0.848;2022-11-20T00:41:09;3.00;99.90
42743;DHT22;28397;44.552;-0.848;2022-11-20T00:43:36;3.20;99.90
42743;DHT22;28397;44.552;-0.848;2022-11-20T00:46:09;3.10;99.90
42743;DHT22;28397;44.552;-0.848;2022-11-20T00:48:35;3.00;99.90
42743;DHT22;28397;44.552;-0.848;2022-11-20T00:51:01;2.90;99.90
42743;DHT22;28397;44.552;-0.848;2022-11-20T00:53:27;3.00;99.90
42743;DHT22;28397;44.552;-0.848;2022-11-20T00:55:57;3.10;99.90
42743;DHT22;28397;44.552;-0.848;2022-11-20T00:58:25;3.20;99.90
42743;DHT22;28397;44.552;-0.848;2022-11-20T01:00:51;3.20;99.90
42743;DHT22;28397;44.552;-0.848;2022-11-20T01:03:17;3.30;99.90
42743;DHT22;28397;44.552;-0.848;2022-11-20T01:05:43;3.40;99.90
42743;DHT22;28397;44.552;-0.848;2022-11-20T01:08:09;3.10;99.90
42743;DHT22;28397;44.552;-0.848;2022-11-20T01:10:34;3.10;99.90
42743;DHT22;28397;44.552;-0.848;2022-11-20T01:13:00;3.10;99.90
42743;DHT22;28397;44.552;-0.848;2022-11-20T01:15:44;3.30;99.90
42743;DHT22;28397;44.552;-0.848;2022-11-20T01:18:10;3.40;99.90
42743;DHT22;28397;44.552;-0.848;2022-11-20T01:20:36;3.60;99.90
42743;DHT22;28397;44.552;-0.848;2022-11-20T01:23:03;3.40;99.90
42743;DHT22;28397;44.552;-0.848;2022-11-20T01:25:29;3.50;99.90
42743;DHT22;28397;44.552;-0.848;2022-11-20T01:27:55;3.50;99.90
42743;DHT22;28397;44.552;-0.848;2022-11-20T01:30:21;3.50;99.90
42743;DHT22;28397;44.552;-0.848;2022-11-20T01:32:47;3.40;99.90
42743;DHT22;28397;44.552;-0.848;2022-11-20T01:35:12;3.60;99.90
42743;DHT22;28397;44.552;-0.848;2022-11-20T01:37:38;3.60;99.90
42743;DHT22;28397;44.552;-0.848;2022-11-20T01:40:04;3.70;99.90
42743;DHT22;28397;44.552;-0.848;2022-11-20T01:42:31;3.80;99.90
42743;DHT22;28397;44.552;-0.848;2022-11-20T01:48:19;4.10;99.90
42743;DHT22;28397;44.552;-0.848;2022-11-20T01:50:45;4.20;99.90
42743;DHT22;28397;44.552;-0.848;2022-11-20T01:53:16;4.30;99.90
42743;DHT22;28397;44.552;-0.848;2022-11-20T01:55:51;4.30;99.90
42743;DHT22;28397;44.552;-0.848;2022-11-20T01:58:22;4.40;99.90
42743;DHT22;28397;44.552;-0.848;2022-11-20T02:00:48;4.50;99.90
42743;DHT22;28397;44.552;-0.848;2022-11-20T02:03:16;4.40;99.90
42743;DHT22;28397;44.552;-0.848;2022-11-20T02:08:18;4.40;99.90
42743;DHT22;28397;44.552;-0.848;2022-11-20T02:10:44;4.50;99.90
42743;DHT22;28397;44.552;-0.848;2022-11-20T02:13:10;4.40;99.90
42743;DHT22;28397;44.552;-0.848;2022-11-20T02:15:54;4.50;99.90
42743;DHT22;28397;44.552;-0.848;2022-11-20T02:18:21;4.60;99.90
42743;DHT22;28397;44.552;-0.848;2022-11-20T02:20:58;4.70;99.90
42743;DHT22;28397;44.552;-0.848;2022-11-20T02:26:26;4.80;99.90
42743;DHT22;28397;44.552;-0.848;2022-11-20T02:28:52;4.70;99.90
42743;DHT22;28397;44.552;-0.848;2022-11-20T02:31:18;4.80;99.90
42743;DHT22;28397;44.552;-0.848;2022-11-20T02:33:44;4.90;99.90
42743;DHT22;28397;44.552;-0.848;2022-11-20T02:36:12;4.90;99.90
42743;DHT22;28397;44.552;-0.848;2022-11-20T02:38:39;5.00;99.90
42743;DHT22;28397;44.552;-0.848;2022-11-20T02:41:05;5.00;99.90
42743;DHT22;28397;44.552;-0.848;2022-11-20T02:43:31;5.20;99.90
42743;DHT22;28397;44.552;-0.848;2022-11-20T02:45:56;5.10;99.90
42743;DHT22;28397;44.552;-0.848;2022-11-20T02:48:22;5.10;99.90
42743;DHT22;28397;44.552;-0.848;2022-11-20T02:50:48;5.10;99.90
42743;DHT22;28397;44.552;-0.848;2022-11-20T02:53:13;5.10;99.90
42743;DHT22;28397;44.552;-0.848;2022-11-20T02:55:39;5.10;99.90
42743;DHT22;28397;44.552;-0.848;2022-11-20T02:58:05;5.10;99.90
42743;DHT22;28397;44.552;-0.848;2022-11-20T03:00:31;5.10;99.90
42743;DHT22;28397;44.552;-0.848;2022-11-20T03:02:57;5.20;99.90
42743;DHT22;28397;44.552;-0.848;2022-11-20T03:05:23;5.20;99.90
42743;DHT22;28397;44.552;-0.848;2022-11-20T03:07:48;5.20;99.90
42743;DHT22;28397;44.552;-0.848;2022-11-20T03:10:14;5.20;99.90
42743;DHT22;28397;44.552;-0.848;2022-11-20T03:12:40;5.20;99.90
42743;DHT22;28397;44.552;-0.848;2022-11-20T03:15:06;5.20;99.90
42743;DHT22;28397;44.552;-0.848;2022-11-20T03:17:31;5.20;99.90
42743;DHT22;28397;44.552;-0.848;2022-11-20T03:19:57;5.30;99.90
42743;DHT22;28397;44.552;-0.848;2022-11-20T03:22:23;5.20;99.90
42743;DHT22;28397;44.552;-0.848;2022-11-20T03:24:48;5.20;99.90
42743;DHT22;28397;44.552;-0.848;2022-11-20T03:27:14;5.20;99.90
42743;DHT22;28397;44.552;-0.848;2022-11-20T03:29:40;5.10;99.90
42743;DHT22;28397;44.552;-0.848;2022-11-20T03:32:06;5.10;99.90
42743;DHT22;28397;44.552;-0.848;2022-11-20T03:34:32;5.10;99.90
42743;DHT22;28397;44.552;-0.848;2022-11-20T03:36:58;5.00;99.90
42743;DHT22;28397;44.552;-0.848;2022-11-20T03:39:24;5.00;99.90
42743;DHT22;28397;44.552;-0.848;2022-11-20T03:41:49;5.10;99.90
42743;DHT22;28397;44.552;-0.848;2022-11-20T03:44:15;5.10;99.90
42743;DHT22;28397;44.552;-0.848;2022-11-20T03:46:41;5.10;99.90
42743;DHT22;28397;44.552;-0.848;2022-11-20T03:49:06;5.20;99.90
42743;DHT22;28397;44.552;-0.848;2022-11-20T03:51:34;5.20;99.90
42743;DHT22;28397;44.552;-0.848;2022-11-20T03:54:04;5.30;99.90
42743;DHT22;28397;44.552;-0.848;2022-11-20T03:56:32;5.30;99.90
42743;DHT22;28397;44.552;-0.848;2022-11-20T03:58:58;5.30;99.90
42743;DHT22;28397;44.552;-0.848;2022-11-20T04:01:30;5.30;99.90
42743;DHT22;28397;44.552;-0.848;2022-11-20T04:03:57;5.30;99.90
42743;DHT22;28397;44.552;-0.848;2022-11-20T04:06:43;5.30;99.90
42743;DHT22;28397;44.552;-0.848;2022-11-20T04:09:08;5.40;99.90
42743;DHT22;28397;44.552;-0.848;2022-11-20T04:11:36;5.40;99.90
42743;DHT22;28397;44.552;-0.848;2022-11-20T04:14:05;5.40;99.90
42743;DHT22;28397;44.552;-0.848;2022-11-20T04:16:33;5.40;99.90
42743;DHT22;28397;44.552;-0.848;2022-11-20T04:19:01;5.40;99.90
42743;DHT22;28397;44.552;-0.848;2022-11-20T04:21:27;5.40;99.90
42743;DHT22;28397;44.552;-0.848;2022-11-20T04:23:53;5.40;99.90
42743;DHT22;28397;44.552;-0.848;2022-11-20T04:26:21;5.30;99.90
42743;DHT22;28397;44.552;-0.848;2022-11-20T04:28:47;5.20;99.90
42743;DHT22;28397;44.552;-0.848;2022-11-20T04:31:27;5.20;99.90
42743;DHT22;28397;44.552;-0.848;2022-11-20T04:33:53;5.30;99.90
42743;DHT22;28397;44.552;-0.848;2022-11-20T04:36:21;5.20;99.90
42743;DHT22;28397;44.552;-0.848;2022-11-20T04:38:51;5.20;99.90
42743;DHT22;28397;44.552;-0.848;2022-11-20T04:41:19;5.10;99.90
42743;DHT22;28397;44.552;-0.848;2022-11-20T04:43:53;5.10;99.90
42743;DHT22;28397;44.552;-0.848;2022-11-20T04:46:25;5.00;99.90
42743;DHT22;28397;44.552;-0.848;2022-11-20T04:48:51;5.10;99.90
42743;DHT22;28397;44.552;-0.848;2022-11-20T04:51:17;5.10;99.90
42743;DHT22;28397;44.552;-0.848;2022-11-20T04:53:43;5.10;99.90
42743;DHT22;28397;44.552;-0.848;2022-11-20T04:56:10;5.10;99.90
42743;DHT22;28397;44.552;-0.848;2022-11-20T04:58:37;5.20;99.90
42743;DHT22;28397;44.552;-0.848;2022-11-20T05:01:11;5.20;99.90
42743;DHT22;28397;44.552;-0.848;2022-11-20T05:03:38;5.30;99.90
42743;DHT22;28397;44.552;-0.848;2022-11-20T05:06:05;5.40;99.90
42743;DHT22;28397;44.552;-0.848;2022-11-20T05:08:32;5.50;99.90
42743;DHT22;28397;44.552;-0.848;2022-11-20T05:11:08;5.50;99.90
42743;DHT22;28397;44.552;-0.848;2022-11-20T05:13:34;5.50;99.90
42743;DHT22;28397;44.552;-0.848;2022-11-20T05:16:05;5.60;99.90
42743;DHT22;28397;44.552;-0.848;2022-11-20T05:18:32;5.60;99.90
42743;DHT22;28397;44.552;-0.848;2022-11-20T05:20:58;5.60;99.90
42743;DHT22;28397;44.552;-0.848;2022-11-20T05:23:25;5.70;99.90
42743;DHT22;28397;44.552;-0.848;2022-11-20T05:25:54;5.60;99.90
42743;DHT22;28397;44.552;-0.848;2022-11-20T05:28:21;5.70;99.90
42743;DHT22;28397;44.552;-0.848;2022-11-20T05:30:46;5.70;99.90
42743;DHT22;28397;44.552;-0.848;2022-11-20T05:33:12;5.70;99.90
42743;DHT22;28397;44.552;-0.848;2022-11-20T05:35:38;5.70;99.90
42743;DHT22;28397;44.552;-0.848;2022-11-20T05:38:03;5.70;99.90
42743;DHT22;28397;44.552;-0.848;2022-11-20T05:40:29;5.80;99.90
42743;DHT22;28397;44.552;-0.848;2022-11-20T05:42:55;5.80;99.90
42743;DHT22;28397;44.552;-0.848;2022-11-20T05:45:21;5.80;99.90
42743;DHT22;28397;44.552;-0.848;2022-11-20T05:47:46;5.90;99.90
42743;DHT22;28397;44.552;-0.848;2022-11-20T05:50:13;5.90;99.90
42743;DHT22;28397;44.552;-0.848;2022-11-20T05:52:38;5.80;99.90
42743;DHT22;28397;44.552;-0.848;2022-11-20T05:55:04;5.90;99.90
42743;DHT22;28397;44.552;-0.848;2022-11-20T05:57:31;5.80;99.90
42743;DHT22;28397;44.552;-0.848;2022-11-20T05:59:57;5.70;99.90
42743;DHT22;28397;44.552;-0.848;2022-11-20T06:02:23;5.70;99.90
42743;DHT22;28397;44.552;-0.848;2022-11-20T06:04:49;5.70;99.90
42743;DHT22;28397;44.552;-0.848;2022-11-20T06:07:15;5.80;99.90
42743;DHT22;28397;44.552;-0.848;2022-11-20T06:09:40;5.80;99.90
42743;DHT22;28397;44.552;-0.848;2022-11-20T06:12:06;5.90;99.90
42743;DHT22;28397;44.552;-0.848;2022-11-20T06:14:32;5.90;99.90
42743;DHT22;28397;44.552;-0.848;2022-11-20T06:16:58;5.90;99.90
42743;DHT22;28397;44.552;-0.848;2022-11-20T06:19:24;6.00;99.90
42743;DHT22;28397;44.552;-0.848;2022-11-20T06:21:50;6.10;99.90
42743;DHT22;28397;44.552;-0.848;2022-11-20T06:24:16;6.00;99.90
42743;DHT22;28397;44.552;-0.848;2022-11-20T06:26:42;6.10;99.90
42743;DHT22;28397;44.552;-0.848;2022-11-20T06:29:08;6.20;99.90
42743;DHT22;28397;44.552;-0.848;2022-11-20T06:31:33;6.20;99.90
42743;DHT22;28397;44.552;-0.848;2022-11-20T06:34:06;6.30;99.90
42743;DHT22;28397;44.552;-0.848;2022-11-20T06:36:32;6.30;99.90
42743;DHT22;28397;44.552;-0.848;2022-11-20T06:38:59;6.30;99.90
42743;DHT22;28397;44.552;-0.848;2022-11-20T06:41:25;6.40;99.90
42743;DHT22;28397;44.552;-0.848;2022-11-20T06:43:51;6.50;99.90
42743;DHT22;28397;44.552;-0.848;2022-11-20T06:46:18;6.50;99.90
42743;DHT22;28397;44.552;-0.848;2022-11-20T06:48:44;6.60;99.90
42743;DHT22;28397;44.552;-0.848;2022-11-20T06:51:11;6.60;99.90
42743;DHT22;28397;44.552;-0.848;2022-11-20T06:53:37;6.70;99.90
42743;DHT22;28397;44.552;-0.848;2022-11-20T06:56:03;6.80;99.90
42743;DHT22;28397;44.552;-0.848;2022-11-20T06:58:31;6.80;99.90
42743;DHT22;28397;44.552;-0.848;2022-11-20T07:01:01;6.80;99.90
42743;DHT22;28397;44.552;-0.848;2022-11-20T07:03:27;6.90;99.90
42743;DHT22;28397;44.552;-0.848;2022-11-20T07:05:57;7.00;99.90
42743;DHT22;28397;44.552;-0.848;2022-11-20T07:08:24;7.00;99.90
42743;DHT22;28397;44.552;-0.848;2022-11-20T07:10:50;7.10;99.90
42743;DHT22;28397;44.552;-0.848;2022-11-20T07:13:16;7.10;99.90
42743;DHT22;28397;44.552;-0.848;2022-11-20T07:15:41;7.10;99.90
42743;DHT22;28397;44.552;-0.848;2022-11-20T07:18:07;7.20;99.90
42743;DHT22;28397;44.552;-0.848;2022-11-20T07:20:33;7.20;99.90
42743;DHT22;28397;44.552;-0.848;2022-11-20T07:22:58;7.30;99.90
42743;DHT22;28397;44.552;-0.848;2022-11-20T07:25:28;7.40;99.90
42743;DHT22;28397;44.552;-0.848;2022-11-20T07:28:00;7.40;99.90
42743;DHT22;28397;44.552;-0.848;2022-11-20T07:30:29;7.40;99.90
42743;DHT22;28397;44.552;-0.848;2022-11-20T07:32:56;7.50;99.90
42743;DHT22;28397;44.552;-0.848;2022-11-20T07:35:23;7.50;99.90
42743;DHT22;28397;44.552;-0.848;2022-11-20T07:37:49;7.60;99.90
42743;DHT22;28397;44.552;-0.848;2022-11-20T07:40:18;7.60;99.90
42743;DHT22;28397;44.552;-0.848;2022-11-20T07:42:54;7.70;99.90
42743;DHT22;28397;44.552;-0.848;2022-11-20T07:45:22;7.70;99.90
42743;DHT22;28397;44.552;-0.848;2022-11-20T07:47:49;7.80;99.90
42743;DHT22;28397;44.552;-0.848;2022-11-20T07:50:15;7.90;99.90
42743;DHT22;28397;44.552;-0.848;2022-11-20T07:52:41;8.00;99.90
42743;DHT22;28397;44.552;-0.848;2022-11-20T07:55:08;8.00;99.90
42743;DHT22;28397;44.552;-0.848;2022-11-20T07:57:34;8.10;99.90
42743;DHT22;28397;44.552;-0.848;2022-11-20T08:00:00;8.10;99.90
42743;DHT22;28397;44.552;-0.848;2022-11-20T08:02:25;8.20;99.90
42743;DHT22;28397;44.552;-0.848;2022-11-20T08:04:51;8.20;99.90
42743;DHT22;28397;44.552;-0.848;2022-11-20T08:07:16;8.30;99.90
42743;DHT22;28397;44.552;-0.848;2022-11-20T08:09:42;8.30;99.90
42743;DHT22;28397;44.552;-0.848;2022-11-20T08:12:08;8.50;99.90
42743;DHT22;28397;44.552;-0.848;2022-11-20T08:15:00;8.60;99.90
42743;DHT22;28397;44.552;-0.848;2022-11-20T08:17:25;8.70;99.90
42743;DHT22;28397;44.552;-0.848;2022-11-20T08:19:51;8.90;99.90
42743;DHT22;28397;44.552;-0.848;2022-11-20T08:22:17;8.90;99.90
42743;DHT22;28397;44.552;-0.848;2022-11-20T08:24:43;8.90;99.90
42743;DHT22;28397;44.552;-0.848;2022-11-20T08:27:08;9.10;99.90
42743;DHT22;28397;44.552;-0.848;2022-11-20T08:29:34;9.30;99.90
42743;DHT22;28397;44.552;-0.848;2022-11-20T08:32:00;9.30;99.90
42743;DHT22;28397;44.552;-0.848;2022-11-20T08:34:25;9.30;99.90
42743;DHT22;28397;44.552;-0.848;2022-11-20T08:36:51;9.30;99.90
42743;DHT22;28397;44.552;-0.848;2022-11-20T08:39:17;9.30;99.90
42743;DHT22;28397;44.552;-0.848;2022-11-20T08:41:42;9.40;99.90
42743;DHT22;28397;44.552;-0.848;2022-11-20T08:44:08;9.50;99.90
42743;DHT22;28397;44.552;-0.848;2022-11-20T08:46:39;9.60;99.90
42743;DHT22;28397;44.552;-0.848;2022-11-20T08:49:08;9.70;99.90
42743;DHT22;28397;44.552;-0.848;2022-11-20T08:51:35;9.70;99.90
42743;DHT22;28397;44.552;-0.848;2022-11-20T08:54:01;9.80;99.90
42743;DHT22;28397;44.552;-0.848;2022-11-20T08:56:27;9.90;99.90
42743;DHT22;28397;44.552;-0.848;2022-11-20T08:58:53;9.90;99.90
42743;DHT22;28397;44.552;-0.848;2022-11-20T09:01:20;9.90;99.90
42743;DHT22;28397;44.552;-0.848;2022-11-20T09:03:46;10.00;99.90
42743;DHT22;28397;44.552;-0.848;2022-11-20T09:06:12;10.00;99.90
42743;DHT22;28397;44.552;-0.848;2022-11-20T09:08:37;10.00;99.90
42743;DHT22;28397;44.552;-0.848;2022-11-20T09:11:04;10.00;99.90
42743;DHT22;28397;44.552;-0.848;2022-11-20T09:13:31;10.10;99.90
42743;DHT22;28397;44.552;-0.848;2022-11-20T09:16:05;10.10;99.90
42743;DHT22;28397;44.552;-0.848;2022-11-20T09:18:32;10.20;99.90
42743;DHT22;28397;44.552;-0.848;2022-11-20T09:21:02;10.10;99.90
42743;DHT22;28397;44.552;-0.848;2022-11-20T09:23:32;10.20;99.90
42743;DHT22;28397;44.552;-0.848;2022-11-20T09:26:04;10.20;99.90
42743;DHT22;28397;44.552;-0.848;2022-11-20T09:28:31;10.20;99.90
42743;DHT22;28397;44.552;-0.848;2022-11-20T09:30:57;10.20;99.90
42743;DHT22;28397;44.552;-0.848;2022-11-20T09:33:22;10.30;99.90
42743;DHT22;28397;44.552;-0.848;2022-11-20T09:35:48;10.30;99.90
42743;DHT22;28397;44.552;-0.848;2022-11-20T09:38:14;10.40;99.90
42743;DHT22;28397;44.552;-0.848;2022-11-20T09:40:54;10.60;99.90
42743;DHT22;28397;44.552;-0.848;2022-11-20T09:48:35;10.70;99.90
42743;DHT22;28397;44.552;-0.848;2022-11-20T09:56:34;10.80;99.90
42743;DHT22;28397;44.552;-0.848;2022-11-20T09:59:05;10.90;99.90
42743;DHT22;28397;44.552;-0.848;2022-11-20T10:01:36;11.00;99.90
42743;DHT22;28397;44.552;-0.848;2022-11-20T10:04:04;11.20;99.90
42743;DHT22;28397;44.552;-0.848;2022-11-20T10:17:26;11.30;99.90
42743;DHT22;28397;44.552;-0.848;2022-11-20T10:23:21;11.50;99.90
42743;DHT22;28397;44.552;-0.848;2022-11-20T10:26:01;11.50;99.90
42743;DHT22;28397;44.552;-0.848;2022-11-20T10:31:38;12.10;99.90
42743;DHT22;28397;44.552;-0.848;2022-11-20T10:34:24;12.20;99.90
42743;DHT22;28397;44.552;-0.848;2022-11-20T10:36:58;12.30;99.90
42743;DHT22;28397;44.552;-0.848;2022-11-20T10:50:38;12.80;99.90
42743;DHT22;28397;44.552;-0.848;2022-11-20T10:56:05;13.00;99.90
42743;DHT22;28397;44.552;-0.848;2022-11-20T10:58:54;12.90;99.90
42743;DHT22;28397;44.552;-0.848;2022-11-20T11:01:25;12.90;99.90
42743;DHT22;28397;44.552;-0.848;2022-11-20T11:03:53;12.90;99.90
42743;DHT22;28397;44.552;-0.848;2022-11-20T11:09:04;13.10;99.90
42743;DHT22;28397;44.552;-0.848;2022-11-20T11:11:34;13.10;99.90
42743;DHT22;28397;44.552;-0.848;2022-11-20T11:14:10;13.10;99.90
42743;DHT22;28397;44.552;-0.848;2022-11-20T11:16:52;13.10;99.90
42743;DHT22;28397;44.552;-0.848;2022-11-20T11:19:18;13.20;99.90
42743;DHT22;28397;44.552;-0.848;2022-11-20T11:21:51;13.30;99.90
42743;DHT22;28397;44.552;-0.848;2022-11-20T11:24:26;13.40;99.90
42743;DHT22;28397;44.552;-0.848;2022-11-20T11:27:00;13.50;99.90
42743;DHT22;28397;44.552;-0.848;2022-11-20T11:29:32;13.60;99.90
42743;DHT22;28397;44.552;-0.848;2022-11-20T11:32:19;13.70;99.90
42743;DHT22;28397;44.552;-0.848;2022-11-20T11:35:05;13.90;99.90
42743;DHT22;28397;44.552;-0.848;2022-11-20T11:37:36;14.20;99.90
42743;DHT22;28397;44.552;-0.848;2022-11-20T11:40:08;14.60;99.90
42743;DHT22;28397;44.552;-0.848;2022-11-20T11:42:46;14.70;99.90
42743;DHT22;28397;44.552;-0.848;2022-11-20T11:45:16;14.90;99.90
42743;DHT22;28397;44.552;-0.848;2022-11-20T11:47:48;15.80;99.90
42743;DHT22;28397;44.552;-0.848;2022-11-20T11:50:23;16.50;99.90
42743;DHT22;28397;44.552;-0.848;2022-11-20T11:55:45;17.10;99.90
42743;DHT22;28397;44.552;-0.848;2022-11-20T12:01:32;16.80;99.90
42743;DHT22;28397;44.552;-0.848;2022-11-20T12:04:04;16.90;99.90
42743;DHT22;28397;44.552;-0.848;2022-11-20T12:06:32;17.00;99.90
42743;DHT22;28397;44.552;-0.848;2022-11-20T12:09:07;16.90;99.90
42743;DHT22;28397;44.552;-0.848;2022-11-20T12:16:32;17.00;99.90
42743;DHT22;28397;44.552;-0.848;2022-11-20T12:19:00;16.90;99.90
42743;DHT22;28397;44.552;-0.848;2022-11-20T12:21:33;16.70;99.90
42743;DHT22;28397;44.552;-0.848;2022-11-20T12:27:36;16.50;99.90
42743;DHT22;28397;44.552;-0.848;2022-11-20T12:43:21;16.00;99.90
42743;DHT22;28397;44.552;-0.848;2022-11-20T12:52:03;16.50;99.90
42743;DHT22;28397;44.552;-0.848;2022-11-20T12:55:07;16.20;99.90
42743;DHT22;28397;44.552;-0.848;2022-11-20T12:58:00;15.90;99.90
42743;DHT22;28397;44.552;-0.848;2022-11-20T13:00:30;16.30;99.90
42743;DHT22;28397;44.552;-0.848;2022-11-20T13:03:36;16.50;99.90
42743;DHT22;28397;44.552;-0.848;2022-11-20T13:08:38;16.30;99.90
42743;DHT22;28397;44.552;-0.848;2022-11-20T13:19:15;16.10;99.90
42743;DHT22;28397;44.552;-0.848;2022-11-20T13:21:44;16.20;99.90
42743;DHT22;28397;44.552;-0.848;2022-11-20T13:27:05;16.20;99.90
42743;DHT22;28397;44.552;-0.848;2022-11-20T13:29:45;16.10;99.90
42743;DHT22;28397;44.552;-0.848;2022-11-20T13:32:15;15.70;99.90
42743;DHT22;28397;44.552;-0.848;2022-11-20T13:34:58;15.70;99.90
42743;DHT22;28397;44.552;-0.848;2022-11-20T13:37:38;15.60;99.90
42743;DHT22;28397;44.552;-0.848;2022-11-20T13:43:02;15.40;99.90
42743;DHT22;28397;44.552;-0.848;2022-11-20T13:45:31;15.20;99.90
42743;DHT22;28397;44.552;-0.848;2022-11-20T13:48:00;15.30;99.90
42743;DHT22;28397;44.552;-0.848;2022-11-20T13:53:33;15.30;99.90
42743;DHT22;28397;44.552;-0.848;2022-11-20T13:56:23;15.20;99.90
42743;DHT22;28397;44.552;-0.848;2022-11-20T13:59:08;15.20;99.90
42743;DHT22;28397;44.552;-0.848;2022-11-20T14:01:38;15.10;99.90
42743;DHT22;28397;44.552;-0.848;2022-11-20T14:04:08;15.30;99.90
42743;DHT22;28397;44.552;-0.848;2022-11-20T14:06:42;15.20;99.90
42743;DHT22;28397;44.552;-0.848;2022-11-20T14:09:13;15.10;99.90
42743;DHT22;28397;44.552;-0.848;2022-11-20T14:11:49;15.00;99.90
42743;DHT22;28397;44.552;-0.848;2022-11-20T14:14:24;15.00;99.90
42743;DHT22;28397;44.552;-0.848;2022-11-20T14:16:51;15.10;99.90
42743;DHT22;28397;44.552;-0.848;2022-11-20T14:21:42;15.10;99.90
42743;DHT22;28397;44.552;-0.848;2022-11-20T14:24:11;15.00;99.90
42743;DHT22;28397;44.552;-0.848;2022-11-20T14:26:42;15.10;99.90
42743;DHT22;28397;44.552;-0.848;2022-11-20T14:29:14;15.00;99.90
42743;DHT22;28397;44.552;-0.848;2022-11-20T14:31:41;14.90;99.90
42743;DHT22;28397;44.552;-0.848;2022-11-20T14:34:21;14.90;99.90
42743;DHT22;28397;44.552;-0.848;2022-11-20T14:36:48;14.80;99.90
42743;DHT22;28397;44.552;-0.848;2022-11-20T14:39:22;14.60;99.90
42743;DHT22;28397;44.552;-0.848;2022-11-20T14:41:52;14.60;99.90
42743;DHT22;28397;44.552;-0.848;2022-11-20T14:44:18;14.50;99.90
42743;DHT22;28397;44.552;-0.848;2022-11-20T14:46:46;14.40;99.90
42743;DHT22;28397;44.552;-0.848;2022-11-20T14:49:12;14.40;99.90
42743;DHT22;28397;44.552;-0.848;2022-11-20T14:51:39;14.40;99.90
42743;DHT22;28397;44.552;-0.848;2022-11-20T14:54:17;14.40;99.90
42743;DHT22;28397;44.552;-0.848;2022-11-20T14:56:54;14.20;99.90
42743;DHT22;28397;44.552;-0.848;2022-11-20T14:59:25;14.20;99.90
42743;DHT22;28397;44.552;-0.848;2022-11-20T15:02:03;14.10;99.90
42743;DHT22;28397;44.552;-0.848;2022-11-20T15:04:29;14.10;99.90
42743;DHT22;28397;44.552;-0.848;2022-11-20T15:06:57;14.10;99.90
42743;DHT22;28397;44.552;-0.848;2022-11-20T15:09:23;14.10;99.90
42743;DHT22;28397;44.552;-0.848;2022-11-20T15:11:59;14.00;99.90
42743;DHT22;28397;44.552;-0.848;2022-11-20T15:14:27;14.00;99.90
42743;DHT22;28397;44.552;-0.848;2022-11-20T15:16:54;13.90;99.90
42743;DHT22;28397;44.552;-0.848;2022-11-20T15:19:25;13.90;99.90
42743;DHT22;28397;44.552;-0.848;2022-11-20T15:21:51;14.00;99.90
42743;DHT22;28397;44.552;-0.848;2022-11-20T15:24:17;13.90;99.90
42743;DHT22;28397;44.552;-0.848;2022-11-20T15:26:43;13.90;99.90
42743;DHT22;28397;44.552;-0.848;2022-11-20T15:29:14;13.90;99.90
42743;DHT22;28397;44.552;-0.848;2022-11-20T15:31:45;13.90;99.90
42743;DHT22;28397;44.552;-0.848;2022-11-20T15:34:12;13.80;99.90
42743;DHT22;28397;44.552;-0.848;2022-11-20T15:36:39;13.80;99.90
42743;DHT22;28397;44.552;-0.848;2022-11-20T15:39:04;13.70;99.90
42743;DHT22;28397;44.552;-0.848;2022-11-20T15:41:35;13.60;99.90
42743;DHT22;28397;44.552;-0.848;2022-11-20T15:44:02;13.70;99.90
42743;DHT22;28397;44.552;-0.848;2022-11-20T15:46:30;13.50;99.90
42743;DHT22;28397;44.552;-0.848;2022-11-20T15:48:59;13.50;99.90
42743;DHT22;28397;44.552;-0.848;2022-11-20T15:51:39;13.50;99.90
42743;DHT22;28397;44.552;-0.848;2022-11-20T15:54:18;13.50;99.90
42743;DHT22;28397;44.552;-0.848;2022-11-20T15:56:46;13.50;99.90
42743;DHT22;28397;44.552;-0.848;2022-11-20T15:59:12;13.40;99.90
42743;DHT22;28397;44.552;-0.848;2022-11-20T16:01:40;13.40;99.90
42743;DHT22;28397;44.552;-0.848;2022-11-20T16:04:11;13.30;99.90
42743;DHT22;28397;44.552;-0.848;2022-11-20T16:06:37;13.30;99.90
42743;DHT22;28397;44.552;-0.848;2022-11-20T16:09:03;13.30;99.90
42743;DHT22;28397;44.552;-0.848;2022-11-20T16:11:29;13.30;99.90
42743;DHT22;28397;44.552;-0.848;2022-11-20T16:13:55;13.30;99.90
42743;DHT22;28397;44.552;-0.848;2022-11-20T16:16:39;13.20;99.90
42743;DHT22;28397;44.552;-0.848;2022-11-20T16:19:12;13.20;99.90
42743;DHT22;28397;44.552;-0.848;2022-11-20T16:21:39;13.10;99.90
42743;DHT22;28397;44.552;-0.848;2022-11-20T16:24:08;13.10;99.90
42743;DHT22;28397;44.552;-0.848;2022-11-20T16:26:34;13.10;99.90
42743;DHT22;28397;44.552;-0.848;2022-11-20T16:29:01;12.90;99.90
42743;DHT22;28397;44.552;-0.848;2022-11-20T16:31:28;12.80;99.90
42743;DHT22;28397;44.552;-0.848;2022-11-20T16:33:56;12.60;99.90
42743;DHT22;28397;44.552;-0.848;2022-11-20T16:36:23;12.60;99.90
42743;DHT22;28397;44.552;-0.848;2022-11-20T16:38:57;12.30;99.90
42743;DHT22;28397;44.552;-0.848;2022-11-20T16:41:23;12.20;99.90
42743;DHT22;28397;44.552;-0.848;2022-11-20T16:43:56;12.30;99.90
42743;DHT22;28397;44.552;-0.848;2022-11-20T16:46:23;12.30;99.90
42743;DHT22;28397;44.552;-0.848;2022-11-20T16:49:02;12.20;99.90
42743;DHT22;28397;44.552;-0.848;2022-11-20T16:51:30;11.90;99.90
42743;DHT22;28397;44.552;-0.848;2022-11-20T16:53:57;11.80;99.90
42743;DHT22;28397;44.552;-0.848;2022-11-20T16:56:24;11.70;99.90
42743;DHT22;28397;44.552;-0.848;2022-11-20T16:58:54;11.50;99.90
42743;DHT22;28397;44.552;-0.848;2022-11-20T17:01:21;11.30;99.90
42743;DHT22;28397;44.552;-0.848;2022-11-20T17:04:07;11.20;99.90
42743;DHT22;28397;44.552;-0.848;2022-11-20T17:06:37;10.90;99.90
42743;DHT22;28397;44.552;-0.848;2022-11-20T17:09:05;10.70;99.90
42743;DHT22;28397;44.552;-0.848;2022-11-20T17:11:33;10.50;99.90
42743;DHT22;28397;44.552;-0.848;2022-11-20T17:13:59;10.50;99.90
42743;DHT22;28397;44.552;-0.848;2022-11-20T17:16:27;10.40;99.90
42743;DHT22;28397;44.552;-0.848;2022-11-20T17:18:57;10.30;99.90
42743;DHT22;28397;44.552;-0.848;2022-11-20T17:21:24;10.20;99.90
42743;DHT22;28397;44.552;-0.848;2022-11-20T17:23:49;10.20;99.90
42743;DHT22;28397;44.552;-0.848;2022-11-20T17:26:17;10.10;99.90